createdAt,value
2023-04-30T00:04:53.645Z,32.70
2023-04-30T00:09:55.215Z,20.10
2023-04-30T00:14:56.488Z,34.00
2023-04-30T00:19:57.785Z,27.90
2023-04-30T00:24:59.276Z,26.80
2023-04-30T00:30:00.330Z,31.40
2023-04-30T00:35:01.775Z,26.10
2023-04-30T00:40:03.849Z,15.30
2023-04-30T00:45:08.366Z,22.10
2023-04-30T00:50:09.764Z,25.80
2023-04-30T00:55:11.930Z,21.10
2023-04-30T01:00:14.590Z,24.40
2023-04-30T01:05:18.877Z,22.00
2023-04-30T01:10:22.925Z,17.40
2023-04-30T01:15:42.773Z,21.40
2023-04-30T01:20:53.983Z,16.30
2023-04-30T01:26:14.908Z,13.70
2023-04-30T01:31:18.885Z,12.80
2023-04-30T01:36:32.443Z,9.20
2023-04-30T01:41:42.353Z,11.20
2023-04-30T01:46:53.360Z,10.60
2023-04-30T01:52:14.253Z,7.40
2023-04-30T01:57:28.478Z,9.50
2023-04-30T02:02:30.221Z,6.00
2023-04-30T02:07:44.378Z,5.90
2023-04-30T02:12:45.378Z,7.70
2023-04-30T02:17:46.576Z,11.50
2023-04-30T02:22:47.850Z,13.40
2023-04-30T02:27:50.707Z,16.20
2023-04-30T02:32:51.696Z,14.10
2023-04-30T02:37:52.751Z,18.10
2023-04-30T02:42:56.021Z,20.80
2023-04-30T02:47:57.117Z,17.90
2023-04-30T02:52:58.401Z,20.20
2023-04-30T02:57:59.751Z,18.90
2023-04-30T03:03:00.848Z,16.90
2023-04-30T03:08:01.927Z,17.70
2023-04-30T03:13:03.058Z,15.20
2023-04-30T03:18:04.575Z,19.90
2023-04-30T03:23:06.244Z,14.30
2023-04-30T03:28:07.197Z,15.40
2023-04-30T03:33:08.430Z,21.90
2023-04-30T03:38:09.535Z,16.60
2023-04-30T03:43:11.565Z,18.40
2023-04-30T03:48:12.688Z,19.30
2023-04-30T03:53:14.127Z,13.30
2023-04-30T03:58:15.445Z,16.80
2023-04-30T04:03:16.852Z,17.80
2023-04-30T04:08:18.109Z,13.90
2023-04-30T04:13:19.099Z,16.80
2023-04-30T04:18:20.165Z,14.60
2023-04-30T04:23:22.031Z,15.40
2023-04-30T04:28:23.142Z,10.50
2023-04-30T04:33:24.281Z,14.20
2023-04-30T04:38:25.768Z,12.30
2023-04-30T04:43:27.003Z,12.20
2023-04-30T04:48:28.092Z,13.80
2023-04-30T04:53:30.220Z,13.70
2023-04-30T04:58:32.151Z,9.00
2023-04-30T05:03:36.416Z,12.30
2023-04-30T05:08:37.687Z,10.60
2023-04-30T05:13:38.673Z,12.90
2023-04-30T05:18:39.719Z,11.70
2023-04-30T05:23:40.710Z,15.90
2023-04-30T05:28:45.003Z,15.10
2023-04-30T05:33:49.287Z,23.30
2023-04-30T05:38:50.962Z,14.50
2023-04-30T05:43:51.931Z,10.30
2023-04-30T05:48:52.947Z,10.30
2023-04-30T05:53:54.035Z,14.80
2023-04-30T05:58:55.050Z,15.50
2023-04-30T06:03:56.178Z,9.50
2023-04-30T06:08:57.280Z,13.70
2023-04-30T06:13:58.605Z,11.40
2023-04-30T06:18:59.574Z,14.30
2023-04-30T06:24:00.621Z,12.20
2023-04-30T06:29:01.681Z,11.40
2023-04-30T06:34:02.863Z,11.20
2023-04-30T06:39:04.564Z,7.40
2023-04-30T06:44:05.689Z,8.50
2023-04-30T06:49:06.876Z,10.20
2023-04-30T06:54:07.982Z,16.70
2023-04-30T06:59:09.566Z,11.70
2023-04-30T07:04:11.349Z,11.30
2023-04-30T07:09:15.022Z,7.40
2023-04-30T07:14:15.995Z,10.00
2023-04-30T07:19:16.968Z,9.20
2023-04-30T07:24:17.938Z,7.40
2023-04-30T07:29:18.980Z,8.70
2023-04-30T07:34:23.053Z,12.60
2023-04-30T07:39:24.267Z,10.30
2023-04-30T07:44:25.233Z,8.40
2023-04-30T07:49:26.200Z,14.10
2023-04-30T07:54:27.506Z,10.20
2023-04-30T07:59:28.514Z,11.50
2023-04-30T08:04:29.672Z,8.10
2023-04-30T08:09:30.770Z,11.60
2023-04-30T08:14:32.348Z,6.60
2023-04-30T08:19:33.325Z,5.90
2023-04-30T08:24:34.379Z,7.80
2023-04-30T08:29:35.403Z,7.20
2023-04-30T08:34:36.628Z,8.00
2023-04-30T08:39:37.589Z,6.50
2023-04-30T08:44:41.575Z,7.60
2023-04-30T08:49:43.094Z,6.80
2023-04-30T08:54:46.795Z,5.30
2023-04-30T08:59:48.087Z,6.20
2023-04-30T09:04:52.538Z,6.90
2023-04-30T09:09:57.533Z,5.70
2023-04-30T09:15:01.811Z,6.60
2023-04-30T09:20:22.620Z,5.40
2023-04-30T09:25:38.583Z,6.30
2023-04-30T09:30:40.536Z,4.90
2023-04-30T09:35:42.045Z,5.10
2023-04-30T09:40:44.452Z,4.80
2023-04-30T09:45:48.333Z,5.50
2023-04-30T09:50:50.666Z,2.80
2023-04-30T09:55:51.987Z,4.10
2023-04-30T10:00:56.562Z,5.30
2023-04-30T10:05:58.858Z,4.60
2023-04-30T10:11:04.738Z,9.20
2023-04-30T10:16:23.855Z,9.70
2023-04-30T10:21:27.401Z,9.70
2023-04-30T10:26:29.394Z,3.60
2023-04-30T10:31:35.386Z,6.10
2023-04-30T10:36:41.738Z,4.90
2023-04-30T10:41:46.420Z,4.70
2023-04-30T10:46:48.354Z,4.70
2023-04-30T10:51:51.245Z,7.80
2023-04-30T10:56:52.481Z,4.90
2023-04-30T11:01:55.787Z,5.50
2023-04-30T11:07:08.839Z,8.30
2023-04-30T11:12:27.708Z,4.10
2023-04-30T11:17:29.133Z,5.50
2023-04-30T11:22:35.150Z,8.90
2023-04-30T11:27:40.081Z,7.80
2023-04-30T11:32:45.453Z,6.00
2023-04-30T11:37:48.064Z,5.60
2023-04-30T11:42:49.088Z,6.20
2023-04-30T11:47:52.036Z,4.10
2023-04-30T11:52:54.699Z,7.20
2023-04-30T11:57:58.005Z,6.40
2023-04-30T12:03:00.878Z,3.70
2023-04-30T12:08:12.317Z,6.50
2023-04-30T12:13:14.332Z,5.50
2023-04-30T12:18:15.521Z,4.30
2023-04-30T12:23:16.629Z,6.20
2023-04-30T12:28:17.729Z,4.80
2023-04-30T12:33:19.056Z,6.50
2023-04-30T12:38:22.650Z,6.50
2023-04-30T12:43:23.685Z,4.90
2023-04-30T12:48:25.545Z,2.60
2023-04-30T12:53:28.372Z,5.60
2023-04-30T12:58:30.506Z,4.60
2023-04-30T13:03:31.737Z,2.80
2023-04-30T13:08:37.323Z,4.00
2023-04-30T13:13:47.215Z,5.70
2023-04-30T13:18:48.264Z,4.50
2023-04-30T13:23:53.613Z,5.80
2023-04-30T13:28:56.499Z,4.40
2023-04-30T13:33:57.651Z,6.80
2023-04-30T13:38:59.275Z,4.30
2023-04-30T13:44:00.278Z,4.90
2023-04-30T13:49:02.115Z,4.70
2023-04-30T13:54:03.253Z,4.60
2023-04-30T13:59:04.593Z,4.10
2023-04-30T14:04:05.596Z,4.70
2023-04-30T14:09:06.842Z,4.10
2023-04-30T14:14:08.542Z,4.90
2023-04-30T14:19:10.431Z,6.10
2023-04-30T14:24:15.387Z,4.10
2023-04-30T14:29:18.508Z,4.30
2023-04-30T14:34:20.873Z,3.50
2023-04-30T14:39:21.906Z,4.60
2023-04-30T14:44:26.260Z,4.50
2023-04-30T14:49:27.848Z,5.80
2023-04-30T14:54:29.103Z,5.40
2023-04-30T14:59:30.912Z,4.30
2023-04-30T15:04:31.970Z,10.40
2023-04-30T15:09:32.975Z,4.10
2023-04-30T15:14:33.970Z,7.80
2023-04-30T15:19:34.997Z,6.40
2023-04-30T15:24:36.315Z,4.10
2023-04-30T15:29:39.620Z,5.40
2023-04-30T15:34:40.556Z,5.80
2023-04-30T15:39:41.545Z,6.90
2023-04-30T15:44:42.519Z,4.10
2023-04-30T15:49:43.838Z,7.50
2023-04-30T15:54:44.829Z,5.70
2023-04-30T15:59:45.928Z,17.10
2023-04-30T16:04:47.514Z,6.70
2023-04-30T16:09:49.026Z,7.00
2023-04-30T16:14:50.584Z,4.00
2023-04-30T16:19:51.548Z,4.80
2023-04-30T16:24:53.396Z,4.10
2023-04-30T16:29:54.586Z,4.00
2023-04-30T16:34:55.659Z,6.50
2023-04-30T16:39:57.131Z,4.20
2023-04-30T16:44:58.687Z,8.60
2023-04-30T16:49:59.813Z,4.70
2023-04-30T16:55:01.742Z,5.80
2023-04-30T17:00:05.775Z,6.10
2023-04-30T17:05:08.918Z,7.20
2023-04-30T17:15:12.041Z,7.10
2023-04-30T17:20:13.029Z,6.70
2023-04-30T17:25:14.581Z,7.40
2023-04-30T17:30:15.972Z,4.80
2023-04-30T17:35:17.041Z,9.50
2023-04-30T17:40:18.051Z,7.00
2023-04-30T17:45:19.280Z,9.20
2023-04-30T17:50:20.486Z,6.80
2023-04-30T17:55:23.017Z,13.10
2023-04-30T18:00:24.428Z,8.40
2023-04-30T18:05:25.528Z,12.50
2023-04-30T18:10:26.907Z,9.10
2023-04-30T18:15:28.630Z,7.20
2023-04-30T18:20:29.763Z,23.20
2023-04-30T18:25:31.253Z,26.70
2023-04-30T18:30:34.105Z,24.60
2023-04-30T18:35:36.167Z,20.10
2023-04-30T18:40:37.733Z,23.70
2023-04-30T18:45:38.866Z,26.10
2023-04-30T18:50:42.552Z,21.90
2023-04-30T18:55:45.532Z,29.10
2023-04-30T19:00:57.326Z,15.10
2023-04-30T19:05:58.928Z,13.60
2023-04-30T19:11:00.277Z,15.90
2023-04-30T19:16:01.697Z,16.70
2023-04-30T19:21:04.615Z,17.60
2023-04-30T19:26:11.401Z,29.90
2023-04-30T19:31:12.573Z,21.10
2023-04-30T19:36:14.002Z,30.90
2023-04-30T19:41:15.031Z,30.70
2023-04-30T19:46:16.259Z,33.20
2023-04-30T19:51:18.058Z,37.00
2023-04-30T19:56:20.441Z,24.80
2023-04-30T20:01:21.608Z,25.80
2023-04-30T20:06:22.767Z,25.80
2023-04-30T20:11:24.023Z,17.90
2023-04-30T20:16:25.158Z,20.50
2023-04-30T20:21:27.114Z,22.00
2023-04-30T20:26:28.523Z,21.00
2023-04-30T20:31:30.527Z,15.20
2023-04-30T20:36:31.822Z,14.10
2023-04-30T20:41:32.828Z,20.70
2023-04-30T20:46:33.922Z,24.70
2023-04-30T20:51:37.855Z,20.90
2023-04-30T20:56:38.977Z,23.30
2023-04-30T21:01:40.400Z,24.00
2023-04-30T21:06:42.005Z,19.60
2023-04-30T21:11:43.787Z,14.40
2023-04-30T21:16:46.096Z,18.90
2023-04-30T21:21:47.209Z,17.60
2023-04-30T21:26:48.394Z,15.10
2023-04-30T21:31:49.401Z,18.70
2023-04-30T21:36:51.222Z,15.50
2023-04-30T21:41:52.958Z,15.20
2023-04-30T21:46:59.498Z,18.80
2023-04-30T21:52:03.812Z,17.50
2023-04-30T21:57:05.242Z,16.90
2023-04-30T22:02:19.978Z,18.60
2023-04-30T22:07:24.178Z,19.10
2023-04-30T22:12:25.522Z,17.50
2023-04-30T22:17:30.037Z,12.60
2023-04-30T22:22:31.467Z,19.30
2023-04-30T22:27:32.478Z,21.20
2023-04-30T22:32:34.048Z,18.90
2023-04-30T22:37:38.021Z,17.10
2023-04-30T22:42:40.524Z,26.60
2023-04-30T22:47:41.753Z,21.90
2023-04-30T22:52:42.848Z,20.70
2023-04-30T22:57:43.817Z,21.80
2023-04-30T23:02:44.960Z,31.50
2023-04-30T23:07:48.669Z,58.40
2023-04-30T23:12:54.767Z,51.70
2023-04-30T23:17:57.542Z,43.10
2023-04-30T23:22:58.612Z,39.90
2023-04-30T23:28:00.497Z,52.00
2023-04-30T23:33:01.892Z,32.00
2023-04-30T23:38:04.273Z,39.40
2023-04-30T23:43:06.353Z,29.40
2023-04-30T23:48:09.729Z,21.50
2023-04-30T23:53:10.772Z,17.50
2023-04-30T23:58:12.183Z,30.90
